sensor_id;sensor_type;location;lat;lon;timestamp;P1;durP1;ratioP1;P2;durP2;ratioP2
53833;SDS011;39735;51.432;5.482;2023-07-09T00:00:36;23.05;;;13.48;;
53833;SDS011;39735;51.432;5.482;2023-07-09T00:03:01;13.13;;;9.93;;
53833;SDS011;39735;51.432;5.482;2023-07-09T00:05:26;19.20;;;10.70;;
53833;SDS011;39735;51.432;5.482;2023-07-09T00:07:52;22.38;;;11.85;;
53833;SDS011;39735;51.432;5.482;2023-07-09T00:10:18;16.80;;;11.03;;
53833;SDS011;39735;51.432;5.482;2023-07-09T00:12:43;19.23;;;9.98;;
53833;SDS011;39735;51.432;5.482;2023-07-09T00:15:10;17.42;;;11.32;;
53833;SDS011;39735;51.432;5.482;2023-07-09T00:17:35;24.55;;;14.02;;
53833;SDS011;39735;51.432;5.482;2023-07-09T00:20:01;13.48;;;10.25;;
53833;SDS011;39735;51.432;5.482;2023-07-09T00:22:29;29.48;;;10.38;;
53833;SDS011;39735;51.432;5.482;2023-07-09T00:24:55;13.40;;;9.77;;
53833;SDS011;39735;51.432;5.482;2023-07-09T00:27:24;24.50;;;11.88;;
53833;SDS011;39735;51.432;5.482;2023-07-09T00:29:51;18.85;;;12.30;;
53833;SDS011;39735;51.432;5.482;2023-07-09T00:32:17;19.75;;;11.48;;
53833;SDS011;39735;51.432;5.482;2023-07-09T00:34:45;26.95;;;12.55;;
53833;SDS011;39735;51.432;5.482;2023-07-09T00:37:13;24.08;;;12.23;;
53833;SDS011;39735;51.432;5.482;2023-07-09T00:39:39;34.05;;;11.07;;
53833;SDS011;39735;51.432;5.482;2023-07-09T00:42:05;22.77;;;12.93;;
53833;SDS011;39735;51.432;5.482;2023-07-09T00:44:31;27.10;;;11.70;;
53833;SDS011;39735;51.432;5.482;2023-07-09T00:49:36;17.00;;;11.80;;
53833;SDS011;39735;51.432;5.482;2023-07-09T00:52:30;15.52;;;11.73;;
53833;SDS011;39735;51.432;5.482;2023-07-09T00:54:58;25.70;;;12.75;;
53833;SDS011;39735;51.432;5.482;2023-07-09T00:57:24;22.30;;;11.27;;
53833;SDS011;39735;51.432;5.482;2023-07-09T00:59:56;14.52;;;12.07;;
53833;SDS011;39735;51.432;5.482;2023-07-09T01:02:22;24.23;;;12.07;;
53833;SDS011;39735;51.432;5.482;2023-07-09T01:04:50;22.27;;;11.38;;
53833;SDS011;39735;51.432;5.482;2023-07-09T01:07:16;15.73;;;11.90;;
53833;SDS011;39735;51.432;5.482;2023-07-09T01:09:41;17.20;;;11.77;;
53833;SDS011;39735;51.432;5.482;2023-07-09T01:12:07;30.58;;;12.23;;
53833;SDS011;39735;51.432;5.482;2023-07-09T01:14:33;20.13;;;11.05;;
53833;SDS011;39735;51.432;5.482;2023-07-09T01:17:01;25.98;;;11.60;;
53833;SDS011;39735;51.432;5.482;2023-07-09T01:19:28;48.33;;;11.65;;
53833;SDS011;39735;51.432;5.482;2023-07-09T01:21:57;27.58;;;12.65;;
53833;SDS011;39735;51.432;5.482;2023-07-09T01:27:10;12.45;;;10.13;;
53833;SDS011;39735;51.432;5.482;2023-07-09T01:29:35;21.25;;;11.68;;
53833;SDS011;39735;51.432;5.482;2023-07-09T01:32:01;21.40;;;12.30;;
53833;SDS011;39735;51.432;5.482;2023-07-09T01:34:28;22.05;;;12.10;;
53833;SDS011;39735;51.432;5.482;2023-07-09T01:36:53;20.45;;;11.93;;
53833;SDS011;39735;51.432;5.482;2023-07-09T01:39:18;13.97;;;10.73;;
53833;SDS011;39735;51.432;5.482;2023-07-09T01:41:44;19.17;;;12.37;;
53833;SDS011;39735;51.432;5.482;2023-07-09T01:44:10;13.57;;;10.95;;
53833;SDS011;39735;51.432;5.482;2023-07-09T01:46:36;27.38;;;11.85;;
53833;SDS011;39735;51.432;5.482;2023-07-09T01:49:01;23.80;;;15.98;;
53833;SDS011;39735;51.432;5.482;2023-07-09T01:51:27;33.37;;;12.57;;
53833;SDS011;39735;51.432;5.482;2023-07-09T01:53:53;28.60;;;13.30;;
53833;SDS011;39735;51.432;5.482;2023-07-09T01:56:18;17.35;;;12.45;;
53833;SDS011;39735;51.432;5.482;2023-07-09T01:58:43;33.50;;;12.90;;
53833;SDS011;39735;51.432;5.482;2023-07-09T02:01:09;33.30;;;12.87;;
53833;SDS011;39735;51.432;5.482;2023-07-09T02:03:34;23.95;;;12.85;;
53833;SDS011;39735;51.432;5.482;2023-07-09T02:05:59;22.70;;;13.73;;
53833;SDS011;39735;51.432;5.482;2023-07-09T02:08:25;25.90;;;12.73;;
53833;SDS011;39735;51.432;5.482;2023-07-09T02:10:50;23.17;;;12.97;;
53833;SDS011;39735;51.432;5.482;2023-07-09T02:13:15;22.20;;;13.25;;
53833;SDS011;39735;51.432;5.482;2023-07-09T02:15:42;41.30;;;14.35;;
53833;SDS011;39735;51.432;5.482;2023-07-09T02:18:09;24.33;;;14.70;;
53833;SDS011;39735;51.432;5.482;2023-07-09T02:20:34;21.80;;;12.85;;
53833;SDS011;39735;51.432;5.482;2023-07-09T02:22:59;24.93;;;14.97;;
53833;SDS011;39735;51.432;5.482;2023-07-09T02:25:24;19.77;;;13.07;;
53833;SDS011;39735;51.432;5.482;2023-07-09T02:27:49;29.67;;;12.73;;
53833;SDS011;39735;51.432;5.482;2023-07-09T02:30:15;26.03;;;15.37;;
53833;SDS011;39735;51.432;5.482;2023-07-09T02:32:40;21.00;;;13.52;;
53833;SDS011;39735;51.432;5.482;2023-07-09T02:35:06;19.05;;;12.57;;
53833;SDS011;39735;51.432;5.482;2023-07-09T02:37:32;26.13;;;14.30;;
53833;SDS011;39735;51.432;5.482;2023-07-09T02:39:58;38.10;;;15.07;;
53833;SDS011;39735;51.432;5.482;2023-07-09T02:42:23;28.10;;;14.47;;
53833;SDS011;39735;51.432;5.482;2023-07-09T02:44:48;28.02;;;15.32;;
53833;SDS011;39735;51.432;5.482;2023-07-09T02:47:14;28.30;;;15.90;;
53833;SDS011;39735;51.432;5.482;2023-07-09T02:49:40;28.50;;;16.85;;
53833;SDS011;39735;51.432;5.482;2023-07-09T02:52:05;32.05;;;16.60;;
53833;SDS011;39735;51.432;5.482;2023-07-09T02:54:30;28.17;;;17.27;;
53833;SDS011;39735;51.432;5.482;2023-07-09T02:56:56;31.38;;;17.70;;
53833;SDS011;39735;51.432;5.482;2023-07-09T02:59:21;32.15;;;14.82;;
53833;SDS011;39735;51.432;5.482;2023-07-09T03:01:46;37.38;;;17.10;;
53833;SDS011;39735;51.432;5.482;2023-07-09T03:04:12;43.50;;;16.55;;
53833;SDS011;39735;51.432;5.482;2023-07-09T03:06:38;28.83;;;18.42;;
53833;SDS011;39735;51.432;5.482;2023-07-09T03:09:03;35.70;;;17.85;;
53833;SDS011;39735;51.432;5.482;2023-07-09T03:11:29;32.47;;;17.25;;
53833;SDS011;39735;51.432;5.482;2023-07-09T03:13:55;28.45;;;17.42;;
53833;SDS011;39735;51.432;5.482;2023-07-09T03:16:21;36.50;;;18.20;;
53833;SDS011;39735;51.432;5.482;2023-07-09T03:18:46;39.03;;;20.37;;
53833;SDS011;39735;51.432;5.482;2023-07-09T03:21:11;30.20;;;18.57;;
53833;SDS011;39735;51.432;5.482;2023-07-09T03:23:37;35.35;;;18.52;;
53833;SDS011;39735;51.432;5.482;2023-07-09T03:26:02;28.85;;;18.48;;
53833;SDS011;39735;51.432;5.482;2023-07-09T03:28:29;35.75;;;19.25;;
53833;SDS011;39735;51.432;5.482;2023-07-09T03:30:55;42.95;;;21.92;;
53833;SDS011;39735;51.432;5.482;2023-07-09T03:33:21;35.65;;;19.55;;
53833;SDS011;39735;51.432;5.482;2023-07-09T03:35:46;25.98;;;19.23;;
53833;SDS011;39735;51.432;5.482;2023-07-09T03:38:12;26.92;;;17.55;;
53833;SDS011;39735;51.432;5.482;2023-07-09T03:40:38;38.17;;;16.77;;
53833;SDS011;39735;51.432;5.482;2023-07-09T03:43:06;28.33;;;19.02;;
53833;SDS011;39735;51.432;5.482;2023-07-09T03:45:32;28.48;;;19.33;;
53833;SDS011;39735;51.432;5.482;2023-07-09T03:47:57;34.03;;;19.98;;
53833;SDS011;39735;51.432;5.482;2023-07-09T03:50:23;30.67;;;18.40;;
53833;SDS011;39735;51.432;5.482;2023-07-09T03:52:48;43.50;;;19.27;;
53833;SDS011;39735;51.432;5.482;2023-07-09T03:55:13;26.77;;;16.87;;
53833;SDS011;39735;51.432;5.482;2023-07-09T03:57:39;37.83;;;17.92;;
53833;SDS011;39735;51.432;5.482;2023-07-09T04:00:04;41.97;;;18.17;;
53833;SDS011;39735;51.432;5.482;2023-07-09T04:02:30;33.60;;;17.75;;
53833;SDS011;39735;51.432;5.482;2023-07-09T04:04:56;45.75;;;17.63;;
53833;SDS011;39735;51.432;5.482;2023-07-09T04:07:21;41.33;;;18.83;;
53833;SDS011;39735;51.432;5.482;2023-07-09T04:09:46;30.05;;;16.15;;
53833;SDS011;39735;51.432;5.482;2023-07-09T04:12:12;26.00;;;16.47;;
53833;SDS011;39735;51.432;5.482;2023-07-09T04:14:37;29.50;;;17.23;;
53833;SDS011;39735;51.432;5.482;2023-07-09T04:17:02;25.38;;;18.25;;
53833;SDS011;39735;51.432;5.482;2023-07-09T04:19:28;28.77;;;16.83;;
53833;SDS011;39735;51.432;5.482;2023-07-09T04:21:53;28.63;;;17.83;;
53833;SDS011;39735;51.432;5.482;2023-07-09T04:24:19;39.63;;;17.52;;
53833;SDS011;39735;51.432;5.482;2023-07-09T04:26:44;30.05;;;15.50;;
53833;SDS011;39735;51.432;5.482;2023-07-09T04:29:10;32.10;;;16.58;;
53833;SDS011;39735;51.432;5.482;2023-07-09T04:31:35;45.78;;;16.85;;
53833;SDS011;39735;51.432;5.482;2023-07-09T04:34:00;28.33;;;16.52;;
53833;SDS011;39735;51.432;5.482;2023-07-09T04:36:26;29.50;;;15.00;;
53833;SDS011;39735;51.432;5.482;2023-07-09T04:38:51;26.47;;;15.87;;
53833;SDS011;39735;51.432;5.482;2023-07-09T04:41:16;29.52;;;16.50;;
53833;SDS011;39735;51.432;5.482;2023-07-09T04:43:42;20.90;;;15.55;;
53833;SDS011;39735;51.432;5.482;2023-07-09T04:46:07;26.93;;;14.30;;
53833;SDS011;39735;51.432;5.482;2023-07-09T04:48:32;26.10;;;16.40;;
53833;SDS011;39735;51.432;5.482;2023-07-09T04:50:57;19.97;;;13.87;;
53833;SDS011;39735;51.432;5.482;2023-07-09T04:53:24;31.38;;;17.33;;
53833;SDS011;39735;51.432;5.482;2023-07-09T04:55:50;24.73;;;14.68;;
53833;SDS011;39735;51.432;5.482;2023-07-09T04:58:15;33.97;;;16.63;;
53833;SDS011;39735;51.432;5.482;2023-07-09T05:00:41;39.72;;;16.20;;
53833;SDS011;39735;51.432;5.482;2023-07-09T05:03:06;43.67;;;18.58;;
53833;SDS011;39735;51.432;5.482;2023-07-09T05:05:32;21.92;;;15.23;;
53833;SDS011;39735;51.432;5.482;2023-07-09T05:07:57;37.05;;;14.30;;
53833;SDS011;39735;51.432;5.482;2023-07-09T05:10:22;30.27;;;15.77;;
53833;SDS011;39735;51.432;5.482;2023-07-09T05:12:48;23.10;;;15.63;;
53833;SDS011;39735;51.432;5.482;2023-07-09T05:15:13;30.13;;;15.98;;
53833;SDS011;39735;51.432;5.482;2023-07-09T05:17:39;29.40;;;16.77;;
53833;SDS011;39735;51.432;5.482;2023-07-09T05:20:04;30.93;;;15.77;;
53833;SDS011;39735;51.432;5.482;2023-07-09T05:22:30;30.95;;;16.40;;
53833;SDS011;39735;51.432;5.482;2023-07-09T05:24:55;32.63;;;16.03;;
53833;SDS011;39735;51.432;5.482;2023-07-09T05:27:20;44.77;;;15.87;;
53833;SDS011;39735;51.432;5.482;2023-07-09T05:29:45;32.23;;;14.43;;
53833;SDS011;39735;51.432;5.482;2023-07-09T05:32:10;41.70;;;15.83;;
53833;SDS011;39735;51.432;5.482;2023-07-09T05:34:36;38.80;;;16.80;;
53833;SDS011;39735;51.432;5.482;2023-07-09T05:37:01;28.97;;;15.07;;
53833;SDS011;39735;51.432;5.482;2023-07-09T05:39:26;17.80;;;13.73;;
53833;SDS011;39735;51.432;5.482;2023-07-09T05:41:51;35.93;;;16.57;;
53833;SDS011;39735;51.432;5.482;2023-07-09T05:44:16;25.90;;;13.83;;
53833;SDS011;39735;51.432;5.482;2023-07-09T05:46:42;23.70;;;13.70;;
53833;SDS011;39735;51.432;5.482;2023-07-09T05:49:07;35.83;;;14.27;;
53833;SDS011;39735;51.432;5.482;2023-07-09T05:51:33;27.35;;;14.35;;
53833;SDS011;39735;51.432;5.482;2023-07-09T05:53:58;28.50;;;13.40;;
53833;SDS011;39735;51.432;5.482;2023-07-09T05:56:23;32.03;;;13.20;;
53833;SDS011;39735;51.432;5.482;2023-07-09T05:58:48;25.90;;;14.27;;
53833;SDS011;39735;51.432;5.482;2023-07-09T06:01:14;29.02;;;13.07;;
53833;SDS011;39735;51.432;5.482;2023-07-09T06:03:39;24.97;;;14.47;;
53833;SDS011;39735;51.432;5.482;2023-07-09T06:06:04;18.55;;;14.52;;
53833;SDS011;39735;51.432;5.482;2023-07-09T06:08:31;25.70;;;14.23;;
53833;SDS011;39735;51.432;5.482;2023-07-09T06:10:57;34.00;;;13.27;;
53833;SDS011;39735;51.432;5.482;2023-07-09T06:13:23;22.45;;;13.50;;
53833;SDS011;39735;51.432;5.482;2023-07-09T06:15:48;30.48;;;14.18;;
53833;SDS011;39735;51.432;5.482;2023-07-09T06:18:14;22.80;;;12.80;;
53833;SDS011;39735;51.432;5.482;2023-07-09T06:20:39;28.17;;;14.80;;
53833;SDS011;39735;51.432;5.482;2023-07-09T06:23:05;29.70;;;13.85;;
53833;SDS011;39735;51.432;5.482;2023-07-09T06:25:30;33.10;;;14.87;;
53833;SDS011;39735;51.432;5.482;2023-07-09T06:27:56;35.67;;;14.27;;
53833;SDS011;39735;51.432;5.482;2023-07-09T06:30:21;27.58;;;14.05;;
53833;SDS011;39735;51.432;5.482;2023-07-09T06:32:47;20.37;;;12.23;;
53833;SDS011;39735;51.432;5.482;2023-07-09T06:35:12;39.43;;;12.27;;
53833;SDS011;39735;51.432;5.482;2023-07-09T06:37:37;35.87;;;13.73;;
53833;SDS011;39735;51.432;5.482;2023-07-09T06:40:02;24.00;;;13.27;;
53833;SDS011;39735;51.432;5.482;2023-07-09T06:42:29;35.30;;;15.40;;
53833;SDS011;39735;51.432;5.482;2023-07-09T06:44:54;25.98;;;13.00;;
53833;SDS011;39735;51.432;5.482;2023-07-09T06:47:20;14.20;;;10.90;;
53833;SDS011;39735;51.432;5.482;2023-07-09T06:49:45;18.48;;;12.10;;
53833;SDS011;39735;51.432;5.482;2023-07-09T06:52:10;14.77;;;11.13;;
53833;SDS011;39735;51.432;5.482;2023-07-09T06:54:35;17.10;;;11.47;;
53833;SDS011;39735;51.432;5.482;2023-07-09T06:57:01;17.97;;;11.87;;
53833;SDS011;39735;51.432;5.482;2023-07-09T06:59:26;34.37;;;13.90;;
53833;SDS011;39735;51.432;5.482;2023-07-09T07:01:51;16.23;;;11.43;;
53833;SDS011;39735;51.432;5.482;2023-07-09T07:04:16;26.13;;;12.57;;
53833;SDS011;39735;51.432;5.482;2023-07-09T07:06:41;23.57;;;12.60;;
53833;SDS011;39735;51.432;5.482;2023-07-09T07:09:07;24.27;;;12.37;;
53833;SDS011;39735;51.432;5.482;2023-07-09T07:11:32;30.60;;;14.80;;
53833;SDS011;39735;51.432;5.482;2023-07-09T07:13:57;13.47;;;9.70;;
53833;SDS011;39735;51.432;5.482;2023-07-09T07:16:23;21.77;;;10.38;;
53833;SDS011;39735;51.432;5.482;2023-07-09T07:18:48;20.55;;;11.10;;
53833;SDS011;39735;51.432;5.482;2023-07-09T07:21:13;19.10;;;11.77;;
53833;SDS011;39735;51.432;5.482;2023-07-09T07:23:38;28.00;;;9.93;;
53833;SDS011;39735;51.432;5.482;2023-07-09T07:26:04;14.53;;;10.07;;
53833;SDS011;39735;51.432;5.482;2023-07-09T07:28:29;33.28;;;11.80;;
53833;SDS011;39735;51.432;5.482;2023-07-09T07:31:01;21.58;;;10.60;;
53833;SDS011;39735;51.432;5.482;2023-07-09T07:33:27;19.83;;;10.25;;
53833;SDS011;39735;51.432;5.482;2023-07-09T07:35:52;9.77;;;8.73;;
53833;SDS011;39735;51.432;5.482;2023-07-09T07:38:17;22.52;;;9.65;;
53833;SDS011;39735;51.432;5.482;2023-07-09T07:40:46;18.43;;;10.67;;
53833;SDS011;39735;51.432;5.482;2023-07-09T07:43:11;24.88;;;9.82;;
53833;SDS011;39735;51.432;5.482;2023-07-09T07:45:39;24.13;;;11.00;;
53833;SDS011;39735;51.432;5.482;2023-07-09T07:48:05;14.68;;;8.70;;
53833;SDS011;39735;51.432;5.482;2023-07-09T07:50:30;19.63;;;9.10;;
53833;SDS011;39735;51.432;5.482;2023-07-09T07:52:56;15.75;;;8.65;;
53833;SDS011;39735;51.432;5.482;2023-07-09T07:55:21;16.37;;;8.30;;
53833;SDS011;39735;51.432;5.482;2023-07-09T07:57:46;15.00;;;8.63;;
53833;SDS011;39735;51.432;5.482;2023-07-09T08:00:11;13.70;;;8.75;;
53833;SDS011;39735;51.432;5.482;2023-07-09T08:02:37;35.78;;;7.10;;
53833;SDS011;39735;51.432;5.482;2023-07-09T08:05:02;16.02;;;7.25;;
53833;SDS011;39735;51.432;5.482;2023-07-09T08:07:27;16.15;;;6.85;;
53833;SDS011;39735;51.432;5.482;2023-07-09T08:09:53;18.17;;;8.23;;
53833;SDS011;39735;51.432;5.482;2023-07-09T08:12:18;21.08;;;7.15;;
53833;SDS011;39735;51.432;5.482;2023-07-09T08:14:44;19.37;;;7.47;;
53833;SDS011;39735;51.432;5.482;2023-07-09T08:17:10;22.67;;;8.13;;
53833;SDS011;39735;51.432;5.482;2023-07-09T08:19:45;14.33;;;7.97;;
53833;SDS011;39735;51.432;5.482;2023-07-09T08:22:11;24.13;;;6.82;;
53833;SDS011;39735;51.432;5.482;2023-07-09T08:24:36;22.47;;;8.67;;
53833;SDS011;39735;51.432;5.482;2023-07-09T08:27:01;23.35;;;9.18;;
53833;SDS011;39735;51.432;5.482;2023-07-09T08:29:28;16.52;;;9.20;;
53833;SDS011;39735;51.432;5.482;2023-07-09T08:31:53;34.33;;;8.25;;
53833;SDS011;39735;51.432;5.482;2023-07-09T08:34:18;21.10;;;8.70;;
53833;SDS011;39735;51.432;5.482;2023-07-09T08:36:44;13.10;;;8.77;;
53833;SDS011;39735;51.432;5.482;2023-07-09T08:39:09;11.75;;;7.53;;
53833;SDS011;39735;51.432;5.482;2023-07-09T08:44:09;15.02;;;7.90;;
53833;SDS011;39735;51.432;5.482;2023-07-09T08:46:54;19.52;;;8.18;;
53833;SDS011;39735;51.432;5.482;2023-07-09T08:49:26;16.55;;;8.20;;
53833;SDS011;39735;51.432;5.482;2023-07-09T08:51:54;15.00;;;7.32;;
53833;SDS011;39735;51.432;5.482;2023-07-09T08:54:25;24.30;;;8.30;;
53833;SDS011;39735;51.432;5.482;2023-07-09T08:56:51;18.48;;;8.23;;
53833;SDS011;39735;51.432;5.482;2023-07-09T08:59:17;16.42;;;8.32;;
53833;SDS011;39735;51.432;5.482;2023-07-09T09:01:52;21.17;;;10.82;;
53833;SDS011;39735;51.432;5.482;2023-07-09T09:04:29;23.38;;;7.63;;
53833;SDS011;39735;51.432;5.482;2023-07-09T09:07:06;12.98;;;7.88;;
53833;SDS011;39735;51.432;5.482;2023-07-09T09:09:36;11.95;;;7.57;;
53833;SDS011;39735;51.432;5.482;2023-07-09T09:12:12;16.67;;;8.25;;
53833;SDS011;39735;51.432;5.482;2023-07-09T09:14:39;15.57;;;8.40;;
53833;SDS011;39735;51.432;5.482;2023-07-09T09:17:09;11.20;;;8.40;;
53833;SDS011;39735;51.432;5.482;2023-07-09T09:19:55;18.08;;;8.05;;
53833;SDS011;39735;51.432;5.482;2023-07-09T09:22:21;10.30;;;8.13;;
53833;SDS011;39735;51.432;5.482;2023-07-09T09:27:13;20.80;;;8.60;;
53833;SDS011;39735;51.432;5.482;2023-07-09T09:29:38;23.13;;;7.37;;
53833;SDS011;39735;51.432;5.482;2023-07-09T09:32:11;28.52;;;10.57;;
53833;SDS011;39735;51.432;5.482;2023-07-09T09:34:42;9.48;;;8.32;;
53833;SDS011;39735;51.432;5.482;2023-07-09T09:37:10;19.30;;;6.73;;
53833;SDS011;39735;51.432;5.482;2023-07-09T09:39:37;24.85;;;6.60;;
53833;SDS011;39735;51.432;5.482;2023-07-09T09:42:03;44.42;;;9.13;;
53833;SDS011;39735;51.432;5.482;2023-07-09T09:44:34;12.93;;;7.43;;
53833;SDS011;39735;51.432;5.482;2023-07-09T09:47:00;21.13;;;7.07;;
53833;SDS011;39735;51.432;5.482;2023-07-09T09:49:25;7.40;;;5.70;;
53833;SDS011;39735;51.432;5.482;2023-07-09T09:51:50;18.03;;;5.83;;
53833;SDS011;39735;51.432;5.482;2023-07-09T09:54:24;16.37;;;5.87;;
53833;SDS011;39735;51.432;5.482;2023-07-09T09:56:52;11.35;;;6.82;;
53833;SDS011;39735;51.432;5.482;2023-07-09T09:59:27;7.68;;;6.07;;
53833;SDS011;39735;51.432;5.482;2023-07-09T10:01:58;9.55;;;6.45;;
53833;SDS011;39735;51.432;5.482;2023-07-09T10:04:24;11.98;;;5.63;;
53833;SDS011;39735;51.432;5.482;2023-07-09T10:06:50;34.20;;;6.40;;
53833;SDS011;39735;51.432;5.482;2023-07-09T10:09:23;20.38;;;6.20;;
53833;SDS011;39735;51.432;5.482;2023-07-09T10:11:58;19.00;;;6.18;;
53833;SDS011;39735;51.432;5.482;2023-07-09T10:19:56;11.57;;;5.40;;
53833;SDS011;39735;51.432;5.482;2023-07-09T10:22:24;9.80;;;7.25;;
53833;SDS011;39735;51.432;5.482;2023-07-09T10:27:48;17.02;;;7.75;;
53833;SDS011;39735;51.432;5.482;2023-07-09T10:38:22;13.90;;;5.97;;
53833;SDS011;39735;51.432;5.482;2023-07-09T10:40:52;11.68;;;6.40;;
53833;SDS011;39735;51.432;5.482;2023-07-09T10:43:20;5.82;;;5.32;;
53833;SDS011;39735;51.432;5.482;2023-07-09T10:45:47;20.65;;;6.30;;
53833;SDS011;39735;51.432;5.482;2023-07-09T10:48:16;15.85;;;5.75;;
53833;SDS011;39735;51.432;5.482;2023-07-09T10:50:47;13.18;;;6.47;;
53833;SDS011;39735;51.432;5.482;2023-07-09T10:53:15;23.60;;;6.57;;
53833;SDS011;39735;51.432;5.482;2023-07-09T11:01:06;19.33;;;6.88;;
53833;SDS011;39735;51.432;5.482;2023-07-09T11:03:38;16.77;;;6.15;;
53833;SDS011;39735;51.432;5.482;2023-07-09T11:06:05;8.90;;;5.57;;
53833;SDS011;39735;51.432;5.482;2023-07-09T11:08:35;18.52;;;5.35;;
53833;SDS011;39735;51.432;5.482;2023-07-09T11:11:06;6.53;;;5.72;;
53833;SDS011;39735;51.432;5.482;2023-07-09T11:13:42;18.70;;;6.57;;
53833;SDS011;39735;51.432;5.482;2023-07-09T11:18:34;13.80;;;5.85;;
53833;SDS011;39735;51.432;5.482;2023-07-09T11:21:07;16.50;;;6.18;;
53833;SDS011;39735;51.432;5.482;2023-07-09T11:23:47;15.40;;;6.47;;
53833;SDS011;39735;51.432;5.482;2023-07-09T11:26:24;22.00;;;6.90;;
53833;SDS011;39735;51.432;5.482;2023-07-09T11:28:53;10.52;;;6.72;;
53833;SDS011;39735;51.432;5.482;2023-07-09T11:31:24;9.75;;;5.63;;
53833;SDS011;39735;51.432;5.482;2023-07-09T11:33:58;12.10;;;6.13;;
53833;SDS011;39735;51.432;5.482;2023-07-09T11:36:25;10.18;;;6.22;;
53833;SDS011;39735;51.432;5.482;2023-07-09T11:38:51;19.25;;;6.18;;
53833;SDS011;39735;51.432;5.482;2023-07-09T11:41:27;13.07;;;6.05;;
53833;SDS011;39735;51.432;5.482;2023-07-09T11:46:30;10.50;;;5.38;;
53833;SDS011;39735;51.432;5.482;2023-07-09T11:48:56;7.85;;;5.43;;
53833;SDS011;39735;51.432;5.482;2023-07-09T11:51:23;8.68;;;6.15;;
53833;SDS011;39735;51.432;5.482;2023-07-09T11:53:51;10.02;;;5.45;;
53833;SDS011;39735;51.432;5.482;2023-07-09T11:56:20;14.68;;;5.85;;
53833;SDS011;39735;51.432;5.482;2023-07-09T11:58:50;12.38;;;5.25;;
53833;SDS011;39735;51.432;5.482;2023-07-09T12:01:16;15.57;;;5.20;;
53833;SDS011;39735;51.432;5.482;2023-07-09T12:03:43;21.60;;;8.07;;
53833;SDS011;39735;51.432;5.482;2023-07-09T12:06:22;14.32;;;6.57;;
53833;SDS011;39735;51.432;5.482;2023-07-09T12:08:48;10.65;;;7.82;;
53833;SDS011;39735;51.432;5.482;2023-07-09T12:11:22;20.25;;;5.18;;
53833;SDS011;39735;51.432;5.482;2023-07-09T12:13:47;26.90;;;6.20;;
53833;SDS011;39735;51.432;5.482;2023-07-09T12:16:24;15.55;;;6.85;;
53833;SDS011;39735;51.432;5.482;2023-07-09T12:18:50;16.90;;;6.07;;
53833;SDS011;39735;51.432;5.482;2023-07-09T12:21:15;7.20;;;5.05;;
53833;SDS011;39735;51.432;5.482;2023-07-09T12:23:40;7.60;;;5.00;;
53833;SDS011;39735;51.432;5.482;2023-07-09T12:26:06;17.02;;;6.38;;
53833;SDS011;39735;51.432;5.482;2023-07-09T12:28:31;13.10;;;6.03;;
53833;SDS011;39735;51.432;5.482;2023-07-09T12:30:57;7.47;;;5.70;;
53833;SDS011;39735;51.432;5.482;2023-07-09T12:33:26;14.30;;;6.38;;
53833;SDS011;39735;51.432;5.482;2023-07-09T12:35:58;11.00;;;6.45;;
53833;SDS011;39735;51.432;5.482;2023-07-09T12:38:25;38.58;;;5.57;;
53833;SDS011;39735;51.432;5.482;2023-07-09T12:40:51;18.27;;;6.68;;
53833;SDS011;39735;51.432;5.482;2023-07-09T12:43:35;19.90;;;5.15;;
53833;SDS011;39735;51.432;5.482;2023-07-09T12:46:00;11.75;;;5.70;;
53833;SDS011;39735;51.432;5.482;2023-07-09T12:48:28;33.67;;;6.97;;
53833;SDS011;39735;51.432;5.482;2023-07-09T12:50:57;12.25;;;5.47;;
53833;SDS011;39735;51.432;5.482;2023-07-09T12:53:24;10.13;;;5.72;;
53833;SDS011;39735;51.432;5.482;2023-07-09T12:55:51;18.70;;;8.77;;
53833;SDS011;39735;51.432;5.482;2023-07-09T13:00:48;29.83;;;10.38;;
53833;SDS011;39735;51.432;5.482;2023-07-09T13:03:16;24.05;;;10.32;;
53833;SDS011;39735;51.432;5.482;2023-07-09T13:05:53;17.02;;;10.48;;
53833;SDS011;39735;51.432;5.482;2023-07-09T13:08:18;13.43;;;9.80;;
53833;SDS011;39735;51.432;5.482;2023-07-09T13:10:44;31.73;;;11.20;;
53833;SDS011;39735;51.432;5.482;2023-07-09T13:13:13;20.38;;;9.95;;
53833;SDS011;39735;51.432;5.482;2023-07-09T13:18:04;21.67;;;12.37;;
53833;SDS011;39735;51.432;5.482;2023-07-09T13:20:30;22.80;;;12.10;;
53833;SDS011;39735;51.432;5.482;2023-07-09T13:22:56;32.20;;;14.32;;
53833;SDS011;39735;51.432;5.482;2023-07-09T13:25:22;38.47;;;11.70;;
53833;SDS011;39735;51.432;5.482;2023-07-09T13:27:47;22.47;;;12.07;;
53833;SDS011;39735;51.432;5.482;2023-07-09T13:30:12;25.38;;;13.38;;
53833;SDS011;39735;51.432;5.482;2023-07-09T13:32:38;41.47;;;13.67;;
53833;SDS011;39735;51.432;5.482;2023-07-09T13:35:03;18.70;;;10.93;;
53833;SDS011;39735;51.432;5.482;2023-07-09T13:37:28;24.45;;;13.05;;
53833;SDS011;39735;51.432;5.482;2023-07-09T13:39:54;29.53;;;15.37;;
53833;SDS011;39735;51.432;5.482;2023-07-09T13:42:19;27.10;;;13.03;;
53833;SDS011;39735;51.432;5.482;2023-07-09T13:44:45;19.67;;;11.47;;
53833;SDS011;39735;51.432;5.482;2023-07-09T13:47:15;23.67;;;12.82;;
53833;SDS011;39735;51.432;5.482;2023-07-09T13:49:41;22.52;;;11.48;;
53833;SDS011;39735;51.432;5.482;2023-07-09T13:52:08;28.60;;;12.98;;
53833;SDS011;39735;51.432;5.482;2023-07-09T13:54:34;21.13;;;11.27;;
53833;SDS011;39735;51.432;5.482;2023-07-09T13:57:04;31.70;;;12.07;;
53833;SDS011;39735;51.432;5.482;2023-07-09T13:59:29;39.08;;;14.48;;
53833;SDS011;39735;51.432;5.482;2023-07-09T14:01:57;34.10;;;12.37;;
53833;SDS011;39735;51.432;5.482;2023-07-09T14:04:24;31.85;;;10.18;;
53833;SDS011;39735;51.432;5.482;2023-07-09T14:06:49;31.35;;;10.20;;
53833;SDS011;39735;51.432;5.482;2023-07-09T14:09:15;26.85;;;10.05;;
53833;SDS011;39735;51.432;5.482;2023-07-09T14:11:43;26.40;;;9.57;;
53833;SDS011;39735;51.432;5.482;2023-07-09T14:16:39;19.83;;;9.15;;
53833;SDS011;39735;51.432;5.482;2023-07-09T14:19:08;35.37;;;11.57;;
53833;SDS011;39735;51.432;5.482;2023-07-09T14:21:34;12.13;;;8.10;;
53833;SDS011;39735;51.432;5.482;2023-07-09T14:23:59;15.63;;;7.93;;
53833;SDS011;39735;51.432;5.482;2023-07-09T14:26:25;16.92;;;7.22;;
53833;SDS011;39735;51.432;5.482;2023-07-09T14:28:50;12.37;;;6.83;;
53833;SDS011;39735;51.432;5.482;2023-07-09T14:31:19;11.07;;;7.47;;
53833;SDS011;39735;51.432;5.482;2023-07-09T14:33:46;12.40;;;5.78;;
53833;SDS011;39735;51.432;5.482;2023-07-09T14:36:11;14.68;;;5.68;;
53833;SDS011;39735;51.432;5.482;2023-07-09T14:38:36;19.27;;;6.33;;
53833;SDS011;39735;51.432;5.482;2023-07-09T14:41:04;6.73;;;5.00;;
53833;SDS011;39735;51.432;5.482;2023-07-09T14:43:33;9.45;;;5.88;;
53833;SDS011;39735;51.432;5.482;2023-07-09T14:46:01;16.53;;;5.93;;
53833;SDS011;39735;51.432;5.482;2023-07-09T14:48:30;9.15;;;5.68;;
53833;SDS011;39735;51.432;5.482;2023-07-09T14:50:57;11.05;;;5.80;;
53833;SDS011;39735;51.432;5.482;2023-07-09T14:53:25;10.80;;;7.13;;
53833;SDS011;39735;51.432;5.482;2023-07-09T14:55:51;11.90;;;5.85;;
53833;SDS011;39735;51.432;5.482;2023-07-09T14:58:17;15.63;;;5.80;;
53833;SDS011;39735;51.432;5.482;2023-07-09T15:00:43;16.33;;;5.90;;
53833;SDS011;39735;51.432;5.482;2023-07-09T15:03:12;17.17;;;6.38;;
53833;SDS011;39735;51.432;5.482;2023-07-09T15:05:40;20.02;;;6.20;;
53833;SDS011;39735;51.432;5.482;2023-07-09T15:08:12;12.18;;;5.63;;
53833;SDS011;39735;51.432;5.482;2023-07-09T15:10:41;16.88;;;6.35;;